sensor_id;sensor_type;location;lat;lon;timestamp;P1;durP1;ratioP1;P2;durP2;ratioP2
33104;SDS011;19476;51.448;6.674;2024-02-16T00:00:57;4.30;;;1.85;;
33104;SDS011;19476;51.448;6.674;2024-02-16T00:03:23;3.92;;;2.00;;
33104;SDS011;19476;51.448;6.674;2024-02-16T00:05:49;5.00;;;2.22;;
33104;SDS011;19476;51.448;6.674;2024-02-16T00:08:17;3.97;;;1.90;;
33104;SDS011;19476;51.448;6.674;2024-02-16T00:10:43;4.43;;;1.73;;
33104;SDS011;19476;51.448;6.674;2024-02-16T00:13:09;3.00;;;1.73;;
33104;SDS011;19476;51.448;6.674;2024-02-16T00:15:35;3.15;;;1.50;;
33104;SDS011;19476;51.448;6.674;2024-02-16T00:18:04;4.22;;;1.73;;
33104;SDS011;19476;51.448;6.674;2024-02-16T00:20:30;3.47;;;1.38;;
33104;SDS011;19476;51.448;6.674;2024-02-16T00:22:56;4.30;;;1.40;;
33104;SDS011;19476;51.448;6.674;2024-02-16T00:25:23;3.38;;;1.40;;
33104;SDS011;19476;51.448;6.674;2024-02-16T00:27:49;2.88;;;1.38;;
33104;SDS011;19476;51.448;6.674;2024-02-16T00:30:18;3.42;;;1.17;;
33104;SDS011;19476;51.448;6.674;2024-02-16T00:32:44;2.40;;;1.33;;
33104;SDS011;19476;51.448;6.674;2024-02-16T00:35:14;3.30;;;1.50;;
33104;SDS011;19476;51.448;6.674;2024-02-16T00:37:41;4.93;;;1.83;;
33104;SDS011;19476;51.448;6.674;2024-02-16T00:40:07;3.42;;;1.85;;
33104;SDS011;19476;51.448;6.674;2024-02-16T00:42:34;4.88;;;1.83;;
33104;SDS011;19476;51.448;6.674;2024-02-16T00:45:00;3.97;;;1.65;;
33104;SDS011;19476;51.448;6.674;2024-02-16T00:47:26;4.75;;;1.80;;
33104;SDS011;19476;51.448;6.674;2024-02-16T00:49:52;3.33;;;1.38;;
33104;SDS011;19476;51.448;6.674;2024-02-16T00:52:18;3.50;;;1.35;;
33104;SDS011;19476;51.448;6.674;2024-02-16T00:54:44;3.97;;;1.60;;
33104;SDS011;19476;51.448;6.674;2024-02-16T00:57:11;3.17;;;1.60;;
33104;SDS011;19476;51.448;6.674;2024-02-16T00:59:39;3.90;;;1.92;;
33104;SDS011;19476;51.448;6.674;2024-02-16T01:02:05;3.85;;;2.03;;
33104;SDS011;19476;51.448;6.674;2024-02-16T01:04:32;6.13;;;2.55;;
33104;SDS011;19476;51.448;6.674;2024-02-16T01:06:58;5.35;;;2.22;;
33104;SDS011;19476;51.448;6.674;2024-02-16T01:09:24;5.68;;;2.55;;
33104;SDS011;19476;51.448;6.674;2024-02-16T01:11:52;6.22;;;2.90;;
33104;SDS011;19476;51.448;6.674;2024-02-16T01:14:18;4.35;;;1.98;;
33104;SDS011;19476;51.448;6.674;2024-02-16T01:16:45;5.97;;;2.10;;
33104;SDS011;19476;51.448;6.674;2024-02-16T01:19:11;5.40;;;2.20;;
33104;SDS011;19476;51.448;6.674;2024-02-16T01:21:38;4.20;;;1.40;;
33104;SDS011;19476;51.448;6.674;2024-02-16T01:24:05;4.25;;;1.88;;
33104;SDS011;19476;51.448;6.674;2024-02-16T01:26:31;4.68;;;1.73;;
33104;SDS011;19476;51.448;6.674;2024-02-16T01:28:57;3.30;;;1.70;;
33104;SDS011;19476;51.448;6.674;2024-02-16T01:31:28;5.70;;;1.38;;
33104;SDS011;19476;51.448;6.674;2024-02-16T01:33:54;4.70;;;1.50;;
33104;SDS011;19476;51.448;6.674;2024-02-16T01:36:20;2.75;;;1.30;;
33104;SDS011;19476;51.448;6.674;2024-02-16T01:38:49;2.83;;;1.30;;
33104;SDS011;19476;51.448;6.674;2024-02-16T01:41:14;2.70;;;1.38;;
33104;SDS011;19476;51.448;6.674;2024-02-16T01:43:40;5.07;;;1.30;;
33104;SDS011;19476;51.448;6.674;2024-02-16T01:46:08;3.80;;;1.92;;
33104;SDS011;19476;51.448;6.674;2024-02-16T01:48:34;2.60;;;1.40;;
33104;SDS011;19476;51.448;6.674;2024-02-16T01:51:00;5.53;;;1.60;;
33104;SDS011;19476;51.448;6.674;2024-02-16T01:53:29;3.50;;;1.58;;
33104;SDS011;19476;51.448;6.674;2024-02-16T01:55:56;6.20;;;1.90;;
33104;SDS011;19476;51.448;6.674;2024-02-16T01:58:22;7.70;;;2.05;;
33104;SDS011;19476;51.448;6.674;2024-02-16T02:00:48;7.40;;;2.83;;
33104;SDS011;19476;51.448;6.674;2024-02-16T02:03:14;6.13;;;2.55;;
33104;SDS011;19476;51.448;6.674;2024-02-16T02:05:47;6.78;;;2.72;;
33104;SDS011;19476;51.448;6.674;2024-02-16T02:08:15;5.07;;;2.60;;
33104;SDS011;19476;51.448;6.674;2024-02-16T02:10:40;5.95;;;2.45;;
33104;SDS011;19476;51.448;6.674;2024-02-16T02:13:07;6.28;;;2.35;;
33104;SDS011;19476;51.448;6.674;2024-02-16T02:15:34;4.53;;;1.98;;
33104;SDS011;19476;51.448;6.674;2024-02-16T02:18:00;4.30;;;2.10;;
33104;SDS011;19476;51.448;6.674;2024-02-16T02:20:26;4.10;;;1.63;;
33104;SDS011;19476;51.448;6.674;2024-02-16T02:22:51;3.28;;;2.00;;
33104;SDS011;19476;51.448;6.674;2024-02-16T02:25:18;4.63;;;1.73;;
33104;SDS011;19476;51.448;6.674;2024-02-16T02:27:43;3.83;;;1.40;;
33104;SDS011;19476;51.448;6.674;2024-02-16T02:30:10;3.80;;;1.50;;
33104;SDS011;19476;51.448;6.674;2024-02-16T02:32:37;4.32;;;1.50;;
33104;SDS011;19476;51.448;6.674;2024-02-16T02:35:04;1.92;;;1.00;;
33104;SDS011;19476;51.448;6.674;2024-02-16T02:37:30;3.40;;;1.35;;
33104;SDS011;19476;51.448;6.674;2024-02-16T02:39:56;2.35;;;1.20;;
33104;SDS011;19476;51.448;6.674;2024-02-16T02:42:22;1.92;;;0.90;;
33104;SDS011;19476;51.448;6.674;2024-02-16T02:44:48;2.30;;;0.88;;
33104;SDS011;19476;51.448;6.674;2024-02-16T02:47:17;4.10;;;1.25;;
33104;SDS011;19476;51.448;6.674;2024-02-16T02:49:43;2.40;;;1.17;;
33104;SDS011;19476;51.448;6.674;2024-02-16T02:52:09;5.57;;;1.35;;
33104;SDS011;19476;51.448;6.674;2024-02-16T02:54:35;3.35;;;1.30;;
33104;SDS011;19476;51.448;6.674;2024-02-16T02:57:01;2.78;;;1.30;;
33104;SDS011;19476;51.448;6.674;2024-02-16T02:59:28;4.07;;;1.63;;
33104;SDS011;19476;51.448;6.674;2024-02-16T03:01:57;2.92;;;1.45;;
33104;SDS011;19476;51.448;6.674;2024-02-16T03:04:23;4.75;;;1.80;;
33104;SDS011;19476;51.448;6.674;2024-02-16T03:06:51;6.57;;;2.28;;
33104;SDS011;19476;51.448;6.674;2024-02-16T03:09:19;5.53;;;1.95;;
33104;SDS011;19476;51.448;6.674;2024-02-16T03:11:45;6.25;;;2.20;;
33104;SDS011;19476;51.448;6.674;2024-02-16T03:14:10;5.07;;;1.75;;
33104;SDS011;19476;51.448;6.674;2024-02-16T03:16:36;3.75;;;1.92;;
33104;SDS011;19476;51.448;6.674;2024-02-16T03:19:05;5.18;;;1.90;;
33104;SDS011;19476;51.448;6.674;2024-02-16T03:21:43;5.75;;;1.83;;
33104;SDS011;19476;51.448;6.674;2024-02-16T03:24:09;4.28;;;1.77;;
33104;SDS011;19476;51.448;6.674;2024-02-16T03:26:35;4.13;;;1.80;;
33104;SDS011;19476;51.448;6.674;2024-02-16T03:29:01;4.82;;;1.80;;
33104;SDS011;19476;51.448;6.674;2024-02-16T03:31:26;6.10;;;2.10;;
33104;SDS011;19476;51.448;6.674;2024-02-16T03:33:54;5.80;;;2.28;;
33104;SDS011;19476;51.448;6.674;2024-02-16T03:36:20;4.45;;;1.63;;
33104;SDS011;19476;51.448;6.674;2024-02-16T03:38:47;6.03;;;2.05;;
33104;SDS011;19476;51.448;6.674;2024-02-16T03:41:20;3.95;;;1.65;;
33104;SDS011;19476;51.448;6.674;2024-02-16T03:46:16;3.20;;;1.60;;
33104;SDS011;19476;51.448;6.674;2024-02-16T03:48:42;4.88;;;1.70;;
33104;SDS011;19476;51.448;6.674;2024-02-16T03:51:09;4.78;;;2.10;;
33104;SDS011;19476;51.448;6.674;2024-02-16T03:53:35;3.13;;;1.70;;
33104;SDS011;19476;51.448;6.674;2024-02-16T03:56:03;6.15;;;1.90;;
33104;SDS011;19476;51.448;6.674;2024-02-16T03:58:31;4.35;;;1.95;;
33104;SDS011;19476;51.448;6.674;2024-02-16T04:00:56;3.85;;;1.67;;
33104;SDS011;19476;51.448;6.674;2024-02-16T04:03:23;4.53;;;2.22;;
33104;SDS011;19476;51.448;6.674;2024-02-16T04:05:50;5.53;;;2.47;;
33104;SDS011;19476;51.448;6.674;2024-02-16T04:08:18;5.03;;;1.92;;
33104;SDS011;19476;51.448;6.674;2024-02-16T04:10:50;4.97;;;2.28;;
33104;SDS011;19476;51.448;6.674;2024-02-16T04:13:23;4.75;;;1.88;;
33104;SDS011;19476;51.448;6.674;2024-02-16T04:15:49;5.05;;;1.90;;
33104;SDS011;19476;51.448;6.674;2024-02-16T04:18:15;7.55;;;2.17;;
33104;SDS011;19476;51.448;6.674;2024-02-16T04:20:41;5.55;;;2.00;;
33104;SDS011;19476;51.448;6.674;2024-02-16T04:23:09;5.82;;;2.60;;
33104;SDS011;19476;51.448;6.674;2024-02-16T04:25:34;6.32;;;2.50;;
33104;SDS011;19476;51.448;6.674;2024-02-16T04:28:00;4.47;;;2.00;;
33104;SDS011;19476;51.448;6.674;2024-02-16T04:30:26;4.78;;;2.00;;
33104;SDS011;19476;51.448;6.674;2024-02-16T04:32:52;3.22;;;1.70;;
33104;SDS011;19476;51.448;6.674;2024-02-16T04:35:18;2.58;;;1.38;;
33104;SDS011;19476;51.448;6.674;2024-02-16T04:37:44;3.97;;;1.45;;
33104;SDS011;19476;51.448;6.674;2024-02-16T04:40:10;4.28;;;1.63;;
33104;SDS011;19476;51.448;6.674;2024-02-16T04:45:21;4.75;;;1.70;;
33104;SDS011;19476;51.448;6.674;2024-02-16T04:47:47;3.80;;;1.58;;
33104;SDS011;19476;51.448;6.674;2024-02-16T04:50:14;5.57;;;1.58;;
33104;SDS011;19476;51.448;6.674;2024-02-16T04:52:40;3.70;;;1.38;;
33104;SDS011;19476;51.448;6.674;2024-02-16T04:55:06;2.10;;;1.00;;
33104;SDS011;19476;51.448;6.674;2024-02-16T04:57:35;3.78;;;1.45;;
33104;SDS011;19476;51.448;6.674;2024-02-16T05:00:02;4.30;;;1.33;;
33104;SDS011;19476;51.448;6.674;2024-02-16T05:02:28;3.05;;;1.50;;
33104;SDS011;19476;51.448;6.674;2024-02-16T05:04:54;3.70;;;1.60;;
33104;SDS011;19476;51.448;6.674;2024-02-16T05:07:20;3.53;;;1.48;;
33104;SDS011;19476;51.448;6.674;2024-02-16T05:09:46;3.75;;;1.77;;
33104;SDS011;19476;51.448;6.674;2024-02-16T05:12:12;5.63;;;1.77;;
33104;SDS011;19476;51.448;6.674;2024-02-16T05:14:38;4.47;;;2.10;;
33104;SDS011;19476;51.448;6.674;2024-02-16T05:17:04;4.10;;;1.88;;
33104;SDS011;19476;51.448;6.674;2024-02-16T05:19:33;3.65;;;1.60;;
33104;SDS011;19476;51.448;6.674;2024-02-16T05:22:00;3.78;;;1.70;;
33104;SDS011;19476;51.448;6.674;2024-02-16T05:24:26;3.35;;;1.65;;
33104;SDS011;19476;51.448;6.674;2024-02-16T05:26:52;6.85;;;1.92;;
33104;SDS011;19476;51.448;6.674;2024-02-16T05:29:18;4.90;;;1.88;;
33104;SDS011;19476;51.448;6.674;2024-02-16T05:31:43;4.32;;;1.95;;
33104;SDS011;19476;51.448;6.674;2024-02-16T05:34:09;6.28;;;2.42;;
33104;SDS011;19476;51.448;6.674;2024-02-16T05:36:35;4.38;;;2.28;;
33104;SDS011;19476;51.448;6.674;2024-02-16T05:39:01;4.68;;;2.35;;
33104;SDS011;19476;51.448;6.674;2024-02-16T05:41:45;4.68;;;2.30;;
33104;SDS011;19476;51.448;6.674;2024-02-16T05:44:11;5.88;;;2.47;;
33104;SDS011;19476;51.448;6.674;2024-02-16T05:46:39;4.68;;;2.00;;
33104;SDS011;19476;51.448;6.674;2024-02-16T05:49:05;4.25;;;1.90;;
33104;SDS011;19476;51.448;6.674;2024-02-16T05:51:37;4.93;;;2.05;;
33104;SDS011;19476;51.448;6.674;2024-02-16T05:54:07;7.32;;;2.45;;
33104;SDS011;19476;51.448;6.674;2024-02-16T05:56:33;4.95;;;2.38;;
33104;SDS011;19476;51.448;6.674;2024-02-16T05:59:01;6.13;;;2.42;;
33104;SDS011;19476;51.448;6.674;2024-02-16T06:01:30;6.25;;;2.90;;
33104;SDS011;19476;51.448;6.674;2024-02-16T06:03:56;4.75;;;2.33;;
33104;SDS011;19476;51.448;6.674;2024-02-16T06:06:25;6.35;;;2.60;;
33104;SDS011;19476;51.448;6.674;2024-02-16T06:08:51;6.35;;;2.58;;
33104;SDS011;19476;51.448;6.674;2024-02-16T06:11:17;6.05;;;2.90;;
33104;SDS011;19476;51.448;6.674;2024-02-16T06:13:43;7.18;;;2.65;;
33104;SDS011;19476;51.448;6.674;2024-02-16T06:16:11;7.10;;;2.55;;
33104;SDS011;19476;51.448;6.674;2024-02-16T06:18:36;5.38;;;2.42;;
33104;SDS011;19476;51.448;6.674;2024-02-16T06:21:02;5.43;;;2.30;;
33104;SDS011;19476;51.448;6.674;2024-02-16T06:23:28;5.57;;;2.35;;
33104;SDS011;19476;51.448;6.674;2024-02-16T06:25:54;4.95;;;2.20;;
33104;SDS011;19476;51.448;6.674;2024-02-16T06:28:20;6.18;;;2.67;;
33104;SDS011;19476;51.448;6.674;2024-02-16T06:30:45;6.47;;;2.63;;
33104;SDS011;19476;51.448;6.674;2024-02-16T06:33:11;5.93;;;2.40;;
33104;SDS011;19476;51.448;6.674;2024-02-16T06:35:37;3.72;;;2.33;;
33104;SDS011;19476;51.448;6.674;2024-02-16T06:38:05;4.63;;;2.30;;
33104;SDS011;19476;51.448;6.674;2024-02-16T06:40:31;5.97;;;2.33;;
33104;SDS011;19476;51.448;6.674;2024-02-16T06:42:57;5.47;;;2.63;;
33104;SDS011;19476;51.448;6.674;2024-02-16T06:45:23;6.25;;;2.78;;
33104;SDS011;19476;51.448;6.674;2024-02-16T06:47:50;6.95;;;3.67;;
33104;SDS011;19476;51.448;6.674;2024-02-16T06:50:16;8.98;;;3.67;;
33104;SDS011;19476;51.448;6.674;2024-02-16T06:52:41;6.13;;;3.10;;
33104;SDS011;19476;51.448;6.674;2024-02-16T06:55:07;7.03;;;2.90;;
33104;SDS011;19476;51.448;6.674;2024-02-16T06:57:33;5.25;;;2.40;;
33104;SDS011;19476;51.448;6.674;2024-02-16T06:59:58;4.18;;;1.90;;
33104;SDS011;19476;51.448;6.674;2024-02-16T07:02:24;4.32;;;2.00;;
33104;SDS011;19476;51.448;6.674;2024-02-16T07:04:50;2.58;;;1.25;;
33104;SDS011;19476;51.448;6.674;2024-02-16T07:07:16;3.83;;;1.45;;
33104;SDS011;19476;51.448;6.674;2024-02-16T07:09:41;2.85;;;1.48;;
33104;SDS011;19476;51.448;6.674;2024-02-16T07:12:07;3.15;;;1.60;;
33104;SDS011;19476;51.448;6.674;2024-02-16T07:14:33;3.97;;;1.40;;
33104;SDS011;19476;51.448;6.674;2024-02-16T07:16:58;2.97;;;1.50;;
33104;SDS011;19476;51.448;6.674;2024-02-16T07:19:24;4.30;;;1.83;;
33104;SDS011;19476;51.448;6.674;2024-02-16T07:21:50;2.63;;;1.50;;
33104;SDS011;19476;51.448;6.674;2024-02-16T07:24:17;3.75;;;1.80;;
33104;SDS011;19476;51.448;6.674;2024-02-16T07:26:43;4.85;;;1.80;;
33104;SDS011;19476;51.448;6.674;2024-02-16T07:29:09;5.82;;;1.65;;
33104;SDS011;19476;51.448;6.674;2024-02-16T07:31:34;2.63;;;1.30;;
33104;SDS011;19476;51.448;6.674;2024-02-16T07:34:01;3.38;;;1.67;;
33104;SDS011;19476;51.448;6.674;2024-02-16T07:36:27;4.03;;;1.77;;
33104;SDS011;19476;51.448;6.674;2024-02-16T07:38:53;4.05;;;1.90;;
33104;SDS011;19476;51.448;6.674;2024-02-16T07:41:18;4.32;;;1.75;;
33104;SDS011;19476;51.448;6.674;2024-02-16T07:43:44;2.95;;;1.50;;
33104;SDS011;19476;51.448;6.674;2024-02-16T07:46:10;3.30;;;1.70;;
33104;SDS011;19476;51.448;6.674;2024-02-16T07:48:35;3.10;;;1.60;;
33104;SDS011;19476;51.448;6.674;2024-02-16T07:51:01;3.33;;;1.55;;
33104;SDS011;19476;51.448;6.674;2024-02-16T07:53:28;5.13;;;1.60;;
33104;SDS011;19476;51.448;6.674;2024-02-16T07:55:54;3.63;;;1.70;;
33104;SDS011;19476;51.448;6.674;2024-02-16T07:58:20;3.80;;;1.75;;
33104;SDS011;19476;51.448;6.674;2024-02-16T08:00:46;4.60;;;1.85;;
33104;SDS011;19476;51.448;6.674;2024-02-16T08:03:12;4.32;;;1.85;;
33104;SDS011;19476;51.448;6.674;2024-02-16T08:05:37;5.15;;;1.80;;
33104;SDS011;19476;51.448;6.674;2024-02-16T08:08:03;2.92;;;1.52;;
33104;SDS011;19476;51.448;6.674;2024-02-16T08:10:29;5.03;;;1.90;;
33104;SDS011;19476;51.448;6.674;2024-02-16T08:12:55;3.25;;;1.90;;
33104;SDS011;19476;51.448;6.674;2024-02-16T08:15:21;3.72;;;1.73;;
33104;SDS011;19476;51.448;6.674;2024-02-16T08:17:51;3.28;;;1.40;;
33104;SDS011;19476;51.448;6.674;2024-02-16T08:20:16;3.75;;;1.45;;
33104;SDS011;19476;51.448;6.674;2024-02-16T08:22:42;4.05;;;1.60;;
33104;SDS011;19476;51.448;6.674;2024-02-16T08:25:08;3.60;;;1.48;;
33104;SDS011;19476;51.448;6.674;2024-02-16T08:27:34;4.18;;;1.65;;
33104;SDS011;19476;51.448;6.674;2024-02-16T08:29:59;11.45;;;2.13;;
33104;SDS011;19476;51.448;6.674;2024-02-16T08:32:27;12.40;;;2.45;;
33104;SDS011;19476;51.448;6.674;2024-02-16T08:34:53;5.82;;;1.70;;
33104;SDS011;19476;51.448;6.674;2024-02-16T08:37:21;6.18;;;1.67;;
33104;SDS011;19476;51.448;6.674;2024-02-16T08:39:46;3.85;;;1.20;;
33104;SDS011;19476;51.448;6.674;2024-02-16T08:42:13;3.70;;;1.30;;
33104;SDS011;19476;51.448;6.674;2024-02-16T08:44:39;3.65;;;1.50;;
33104;SDS011;19476;51.448;6.674;2024-02-16T08:47:05;3.95;;;1.52;;
33104;SDS011;19476;51.448;6.674;2024-02-16T08:49:32;2.85;;;1.40;;
33104;SDS011;19476;51.448;6.674;2024-02-16T08:51:59;2.75;;;1.30;;
33104;SDS011;19476;51.448;6.674;2024-02-16T08:54:25;3.50;;;1.88;;
33104;SDS011;19476;51.448;6.674;2024-02-16T08:56:51;3.95;;;1.67;;
33104;SDS011;19476;51.448;6.674;2024-02-16T08:59:20;4.95;;;1.90;;
33104;SDS011;19476;51.448;6.674;2024-02-16T09:01:46;3.50;;;1.58;;
33104;SDS011;19476;51.448;6.674;2024-02-16T09:04:12;3.45;;;1.42;;
33104;SDS011;19476;51.448;6.674;2024-02-16T09:06:37;3.08;;;1.58;;
33104;SDS011;19476;51.448;6.674;2024-02-16T09:09:04;3.90;;;2.10;;
33104;SDS011;19476;51.448;6.674;2024-02-16T09:11:32;4.00;;;1.88;;
33104;SDS011;19476;51.448;6.674;2024-02-16T09:13:58;4.32;;;1.80;;
33104;SDS011;19476;51.448;6.674;2024-02-16T09:16:24;6.65;;;2.53;;
33104;SDS011;19476;51.448;6.674;2024-02-16T09:18:50;3.90;;;1.73;;
33104;SDS011;19476;51.448;6.674;2024-02-16T09:21:16;8.85;;;2.83;;
33104;SDS011;19476;51.448;6.674;2024-02-16T09:23:41;4.95;;;2.33;;
33104;SDS011;19476;51.448;6.674;2024-02-16T09:26:07;3.80;;;2.08;;
33104;SDS011;19476;51.448;6.674;2024-02-16T09:28:39;4.07;;;1.98;;
33104;SDS011;19476;51.448;6.674;2024-02-16T09:31:06;4.43;;;2.22;;
33104;SDS011;19476;51.448;6.674;2024-02-16T09:33:33;5.97;;;2.50;;
33104;SDS011;19476;51.448;6.674;2024-02-16T09:35:59;6.82;;;2.40;;
33104;SDS011;19476;51.448;6.674;2024-02-16T09:38:24;4.28;;;2.08;;
33104;SDS011;19476;51.448;6.674;2024-02-16T09:40:50;4.43;;;1.80;;
33104;SDS011;19476;51.448;6.674;2024-02-16T09:43:26;5.40;;;2.38;;
33104;SDS011;19476;51.448;6.674;2024-02-16T09:45:54;7.18;;;2.55;;
33104;SDS011;19476;51.448;6.674;2024-02-16T09:48:25;3.60;;;1.70;;
33104;SDS011;19476;51.448;6.674;2024-02-16T09:50:54;5.20;;;2.03;;
33104;SDS011;19476;51.448;6.674;2024-02-16T09:53:21;4.32;;;1.80;;
33104;SDS011;19476;51.448;6.674;2024-02-16T09:55:50;3.58;;;1.48;;
33104;SDS011;19476;51.448;6.674;2024-02-16T09:58:16;5.95;;;1.75;;
33104;SDS011;19476;51.448;6.674;2024-02-16T10:00:50;4.63;;;1.73;;
33104;SDS011;19476;51.448;6.674;2024-02-16T10:03:25;3.40;;;1.65;;
33104;SDS011;19476;51.448;6.674;2024-02-16T10:05:51;3.80;;;2.00;;
33104;SDS011;19476;51.448;6.674;2024-02-16T10:08:18;3.30;;;1.40;;
33104;SDS011;19476;51.448;6.674;2024-02-16T10:10:44;4.15;;;1.85;;
33104;SDS011;19476;51.448;6.674;2024-02-16T10:13:10;5.43;;;1.75;;
33104;SDS011;19476;51.448;6.674;2024-02-16T10:15:36;3.47;;;1.50;;
33104;SDS011;19476;51.448;6.674;2024-02-16T10:18:05;4.22;;;1.90;;
33104;SDS011;19476;51.448;6.674;2024-02-16T10:20:32;5.28;;;1.38;;
33104;SDS011;19476;51.448;6.674;2024-02-16T10:23:08;5.07;;;1.85;;
33104;SDS011;19476;51.448;6.674;2024-02-16T10:25:35;4.93;;;1.58;;
33104;SDS011;19476;51.448;6.674;2024-02-16T10:28:05;2.05;;;1.30;;
33104;SDS011;19476;51.448;6.674;2024-02-16T10:30:36;3.42;;;1.50;;
33104;SDS011;19476;51.448;6.674;2024-02-16T10:33:04;4.50;;;1.60;;
33104;SDS011;19476;51.448;6.674;2024-02-16T10:35:32;4.38;;;1.55;;
33104;SDS011;19476;51.448;6.674;2024-02-16T10:38:02;5.93;;;2.30;;
33104;SDS011;19476;51.448;6.674;2024-02-16T10:40:32;6.55;;;1.88;;
33104;SDS011;19476;51.448;6.674;2024-02-16T10:43:00;3.90;;;1.70;;
33104;SDS011;19476;51.448;6.674;2024-02-16T10:45:29;4.63;;;1.75;;
33104;SDS011;19476;51.448;6.674;2024-02-16T10:47:57;3.97;;;1.70;;
33104;SDS011;19476;51.448;6.674;2024-02-16T10:50:23;3.97;;;1.88;;
33104;SDS011;19476;51.448;6.674;2024-02-16T10:52:48;4.03;;;1.73;;
33104;SDS011;19476;51.448;6.674;2024-02-16T10:55:15;5.85;;;1.83;;
33104;SDS011;19476;51.448;6.674;2024-02-16T10:57:42;4.63;;;1.90;;
33104;SDS011;19476;51.448;6.674;2024-02-16T11:00:08;6.65;;;1.95;;
33104;SDS011;19476;51.448;6.674;2024-02-16T11:05:31;5.53;;;1.65;;
33104;SDS011;19476;51.448;6.674;2024-02-16T11:08:04;5.75;;;1.88;;
33104;SDS011;19476;51.448;6.674;2024-02-16T11:10:36;7.78;;;1.80;;
33104;SDS011;19476;51.448;6.674;2024-02-16T11:13:02;5.82;;;1.80;;
33104;SDS011;19476;51.448;6.674;2024-02-16T11:15:32;3.75;;;1.65;;
33104;SDS011;19476;51.448;6.674;2024-02-16T11:18:00;3.42;;;1.90;;
33104;SDS011;19476;51.448;6.674;2024-02-16T11:20:26;5.22;;;2.35;;
33104;SDS011;19476;51.448;6.674;2024-02-16T11:22:52;3.85;;;1.80;;
33104;SDS011;19476;51.448;6.674;2024-02-16T11:25:18;3.65;;;1.67;;
33104;SDS011;19476;51.448;6.674;2024-02-16T11:27:55;5.28;;;2.10;;
33104;SDS011;19476;51.448;6.674;2024-02-16T11:30:21;4.13;;;1.70;;
33104;SDS011;19476;51.448;6.674;2024-02-16T11:32:47;6.65;;;2.75;;
33104;SDS011;19476;51.448;6.674;2024-02-16T11:35:12;4.93;;;2.15;;
33104;SDS011;19476;51.448;6.674;2024-02-16T11:37:38;4.65;;;1.88;;
33104;SDS011;19476;51.448;6.674;2024-02-16T11:40:05;4.20;;;1.83;;
33104;SDS011;19476;51.448;6.674;2024-02-16T11:42:33;4.20;;;1.67;;
33104;SDS011;19476;51.448;6.674;2024-02-16T11:45:00;5.40;;;2.15;;
33104;SDS011;19476;51.448;6.674;2024-02-16T11:47:26;4.22;;;2.15;;
33104;SDS011;19476;51.448;6.674;2024-02-16T11:50:02;6.13;;;2.30;;
33104;SDS011;19476;51.448;6.674;2024-02-16T11:52:40;5.50;;;2.35;;
33104;SDS011;19476;51.448;6.674;2024-02-16T11:55:10;4.90;;;2.30;;
33104;SDS011;19476;51.448;6.674;2024-02-16T11:57:36;5.15;;;2.42;;
33104;SDS011;19476;51.448;6.674;2024-02-16T12:00:03;5.90;;;1.95;;
33104;SDS011;19476;51.448;6.674;2024-02-16T12:02:34;5.28;;;2.33;;
33104;SDS011;19476;51.448;6.674;2024-02-16T12:05:01;3.17;;;1.83;;
33104;SDS011;19476;51.448;6.674;2024-02-16T12:07:28;3.65;;;1.92;;
33104;SDS011;19476;51.448;6.674;2024-02-16T12:10:00;5.03;;;2.28;;
33104;SDS011;19476;51.448;6.674;2024-02-16T12:12:27;6.47;;;2.30;;
33104;SDS011;19476;51.448;6.674;2024-02-16T12:14:54;8.05;;;2.90;;
33104;SDS011;19476;51.448;6.674;2024-02-16T12:17:20;5.63;;;2.28;;
33104;SDS011;19476;51.448;6.674;2024-02-16T12:19:46;7.82;;;2.97;;
33104;SDS011;19476;51.448;6.674;2024-02-16T12:22:22;6.30;;;2.53;;
33104;SDS011;19476;51.448;6.674;2024-02-16T12:24:48;5.43;;;2.53;;
33104;SDS011;19476;51.448;6.674;2024-02-16T12:27:15;5.30;;;2.10;;
33104;SDS011;19476;51.448;6.674;2024-02-16T12:29:41;10.18;;;2.78;;
33104;SDS011;19476;51.448;6.674;2024-02-16T12:32:07;7.78;;;3.20;;
33104;SDS011;19476;51.448;6.674;2024-02-16T12:34:36;9.75;;;3.47;;
33104;SDS011;19476;51.448;6.674;2024-02-16T12:37:06;8.07;;;2.75;;
33104;SDS011;19476;51.448;6.674;2024-02-16T12:39:35;11.45;;;3.15;;
33104;SDS011;19476;51.448;6.674;2024-02-16T12:44:28;5.47;;;3.20;;
33104;SDS011;19476;51.448;6.674;2024-02-16T12:46:54;5.60;;;3.00;;
33104;SDS011;19476;51.448;6.674;2024-02-16T12:49:20;8.05;;;2.92;;
33104;SDS011;19476;51.448;6.674;2024-02-16T12:51:50;7.50;;;2.65;;
33104;SDS011;19476;51.448;6.674;2024-02-16T12:54:17;5.85;;;2.88;;
33104;SDS011;19476;51.448;6.674;2024-02-16T12:56:47;7.10;;;3.45;;
33104;SDS011;19476;51.448;6.674;2024-02-16T12:59:13;10.15;;;3.60;;
33104;SDS011;19476;51.448;6.674;2024-02-16T13:01:39;8.05;;;3.15;;
33104;SDS011;19476;51.448;6.674;2024-02-16T13:04:07;6.90;;;2.80;;
33104;SDS011;19476;51.448;6.674;2024-02-16T13:06:33;5.70;;;2.90;;
33104;SDS011;19476;51.448;6.674;2024-02-16T13:08:59;6.47;;;3.20;;
33104;SDS011;19476;51.448;6.674;2024-02-16T13:11:24;5.78;;;2.63;;
33104;SDS011;19476;51.448;6.674;2024-02-16T13:13:50;5.30;;;2.92;;
33104;SDS011;19476;51.448;6.674;2024-02-16T13:16:16;6.93;;;3.30;;
33104;SDS011;19476;51.448;6.674;2024-02-16T13:18:43;7.55;;;3.42;;
33104;SDS011;19476;51.448;6.674;2024-02-16T13:21:09;6.07;;;2.95;;
33104;SDS011;19476;51.448;6.674;2024-02-16T13:23:34;6.00;;;3.15;;
33104;SDS011;19476;51.448;6.674;2024-02-16T13:26:00;9.52;;;4.25;;
33104;SDS011;19476;51.448;6.674;2024-02-16T13:28:26;8.25;;;3.85;;
33104;SDS011;19476;51.448;6.674;2024-02-16T13:30:52;7.13;;;3.67;;
33104;SDS011;19476;51.448;6.674;2024-02-16T13:33:17;6.80;;;3.83;;
33104;SDS011;19476;51.448;6.674;2024-02-16T13:35:43;7.28;;;4.22;;
33104;SDS011;19476;51.448;6.674;2024-02-16T13:38:09;9.05;;;4.53;;
33104;SDS011;19476;51.448;6.674;2024-02-16T13:40:35;6.88;;;4.15;;
33104;SDS011;19476;51.448;6.674;2024-02-16T13:43:00;7.85;;;4.00;;
33104;SDS011;19476;51.448;6.674;2024-02-16T13:45:47;8.48;;;4.35;;
33104;SDS011;19476;51.448;6.674;2024-02-16T13:48:19;9.45;;;4.55;;
33104;SDS011;19476;51.448;6.674;2024-02-16T13:50:46;7.05;;;3.55;;
33104;SDS011;19476;51.448;6.674;2024-02-16T13:53:13;8.15;;;3.55;;
33104;SDS011;19476;51.448;6.674;2024-02-16T13:55:39;7.68;;;3.70;;
33104;SDS011;19476;51.448;6.674;2024-02-16T13:58:06;7.03;;;4.00;;
33104;SDS011;19476;51.448;6.674;2024-02-16T14:00:31;10.00;;;4.22;;
33104;SDS011;19476;51.448;6.674;2024-02-16T14:02:57;9.77;;;3.60;;
33104;SDS011;19476;51.448;6.674;2024-02-16T14:05:23;7.82;;;4.32;;
33104;SDS011;19476;51.448;6.674;2024-02-16T14:07:50;5.55;;;3.13;;
33104;SDS011;19476;51.448;6.674;2024-02-16T14:10:16;7.38;;;3.42;;
33104;SDS011;19476;51.448;6.674;2024-02-16T14:12:44;7.40;;;3.95;;
33104;SDS011;19476;51.448;6.674;2024-02-16T14:15:11;7.45;;;3.70;;
33104;SDS011;19476;51.448;6.674;2024-02-16T14:17:40;6.53;;;3.17;;
33104;SDS011;19476;51.448;6.674;2024-02-16T14:20:07;7.03;;;3.10;;
33104;SDS011;19476;51.448;6.674;2024-02-16T14:22:33;5.90;;;2.85;;
33104;SDS011;19476;51.448;6.674;2024-02-16T14:24:59;4.43;;;2.72;;
33104;SDS011;19476;51.448;6.674;2024-02-16T14:27:25;5.45;;;2.78;;
33104;SDS011;19476;51.448;6.674;2024-02-16T14:29:50;3.88;;;2.38;;
33104;SDS011;19476;51.448;6.674;2024-02-16T14:32:16;5.07;;;2.70;;
33104;SDS011;19476;51.448;6.674;2024-02-16T14:34:42;3.45;;;2.28;;
33104;SDS011;19476;51.448;6.674;2024-02-16T14:37:09;6.35;;;3.00;;
33104;SDS011;19476;51.448;6.674;2024-02-16T14:39:35;4.72;;;2.45;;
33104;SDS011;19476;51.448;6.674;2024-02-16T14:42:01;4.82;;;2.90;;
33104;SDS011;19476;51.448;6.674;2024-02-16T14:44:26;3.40;;;2.30;;
33104;SDS011;19476;51.448;6.674;2024-02-16T14:46:52;4.13;;;2.42;;
33104;SDS011;19476;51.448;6.674;2024-02-16T14:49:18;3.50;;;2.20;;
33104;SDS011;19476;51.448;6.674;2024-02-16T14:51:46;3.72;;;2.10;;
33104;SDS011;19476;51.448;6.674;2024-02-16T14:54:12;6.53;;;2.70;;
33104;SDS011;19476;51.448;6.674;2024-02-16T14:56:38;3.67;;;2.30;;